KACY

Atlantic City International Airport

Airport
ICAO code
KACY
IATA Code
ACY
Summary
ICAO Region
NAM
ICAO Territory
Location

Egg Harbour, New Jersey

Serving
Atlantic City
Elevation
75 ft
Coordinates
39° 27' 4" N , 74° 34' 21" W
KCC
Metar
KACY 301034Z 31006KT 10SM FEW005 SCT022 15/13 A2995 RMK AO2 T01500133 $

Description

Atlantic City International Airport is a joint civil-military (ANG/USCG) airport located 10 nm northwest of Atlantic City, New Jersey, USA.

Airport map

Aerial View

SKYbrary Partners:

Safety knowledge contributed by: